Time;durP1;ratioP1;P1;durP2;ratioP2;P2;SDS_P1;SDS_P2;PMS_P1;PMS_P2;Temp;Humidity;BMP_temperature;BMP_pressure;BME280_temperature;BME280_humidity;BME280_pressure;Samples;Min_cycle;Max_cycle;Signal;HPM_P1;HPM_P2
2022/04/07 00:02:03;;;;;;;9.93;9.43;;;;;;;8.99;61.14;91974.19;5013142;28;20188;-75
2022/04/07 00:04:29;;;;;;;11.67;10.03;;;;;;;9.18;60.93;91992.38;5012438;28;20236;-74
2022/04/07 00:06:55;;;;;;;10.53;9.80;;;;;;;8.98;61.15;91964.06;5013086;28;20202;-75
2022/04/07 00:09:21;;;;;;;10.23;9.67;;;;;;;9.04;62.71;91975.94;5012564;28;20223;-75
2022/04/07 00:11:47;;;;;;;9.87;9.33;;;;;;;9.05;62.70;91974.84;5012718;28;20188;-75
2022/04/07 00:14:12;;;;;;;9.43;8.83;;;;;;;9.03;62.31;91956.13;5012945;28;20231;-76
2022/04/07 00:16:38;;;;;;;9.17;8.73;;;;;;;9.05;62.41;91946.22;5013016;28;20198;-74
2022/04/07 00:19:05;;;;;;;10.37;9.67;;;;;;;9.01;63.80;91950.47;5011324;28;20238;-75
2022/04/07 00:21:38;;;;;;;9.93;9.43;;;;;;;8.75;64.35;91957.88;5013009;28;20234;-75
2022/04/07 00:24:05;;;;;;;9.63;9.03;;;;;;;8.89;63.61;91947.50;5012056;28;20223;-75
2022/04/07 00:26:31;;;;;;;10.73;10.10;;;;;;;8.81;63.22;91950.78;5013099;28;20199;-73
2022/04/07 00:28:57;;;;;;;10.40;9.67;;;;;;;8.80;63.46;91944.00;5011851;28;20227;-75
2022/04/07 00:31:22;;;;;;;9.20;8.80;;;;;;;8.73;63.66;91936.56;5012940;28;20191;-74
2022/04/07 00:33:48;;;;;;;8.93;8.53;;;;;;;8.79;64.15;91938.06;5012567;28;20259;-75
2022/04/07 00:36:13;;;;;;;10.33;9.73;;;;;;;8.66;64.24;91930.16;5012781;28;20188;-74
2022/04/07 00:38:39;;;;;;;9.40;8.97;;;;;;;8.74;63.36;91924.31;5012257;28;20228;-74
2022/04/07 00:41:04;;;;;;;9.77;9.27;;;;;;;8.77;63.45;91932.34;5012430;28;20192;-74
2022/04/07 00:43:31;;;;;;;10.43;9.83;;;;;;;8.66;64.01;91928.34;5011863;28;20307;-74
2022/04/07 00:45:58;;;;;;;10.20;9.70;;;;;;;8.67;64.16;91929.88;5012742;28;20187;-73
2022/04/07 00:48:23;;;;;;;9.90;9.30;;;;;;;8.49;65.41;91922.09;5011745;28;20262;-75
2022/04/07 00:50:49;;;;;;;11.00;10.20;;;;;;;8.64;64.88;91935.66;5012218;28;20184;-74
2022/04/07 00:53:16;;;;;;;10.50;9.73;;;;;;;8.56;64.59;91923.28;5010849;28;20274;-74
2022/04/07 00:55:42;;;;;;;9.97;9.47;;;;;;;8.69;64.01;91919.19;5012348;28;21053;-75
2022/04/07 00:58:08;;;;;;;10.33;9.53;;;;;;;8.51;64.04;91899.97;5011095;28;20246;-75
2022/04/07 01:00:34;;;;;;;9.80;9.30;;;;;;;8.60;63.94;91913.09;5012650;28;20183;-75
2022/04/07 01:03:00;;;;;;;10.27;9.77;;;;;;;8.47;64.16;91919.03;5012059;28;20195;-75
2022/04/07 01:05:25;;;;;;;9.87;9.17;;;;;;;8.45;64.27;91910.72;5012025;28;20191;-76
2022/04/07 01:07:51;;;;;;;10.13;9.63;;;;;;;8.58;64.35;91908.16;5011727;28;20206;-75
2022/04/07 01:10:19;;;;;;;11.10;10.40;;;;;;;8.62;64.59;91892.78;5011777;28;20179;-75
2022/04/07 01:12:45;;;;;;;10.87;9.90;;;;;;;8.57;64.68;91879.84;5011910;28;20271;-75
2022/04/07 01:15:11;;;;;;;10.80;10.20;;;;;;;8.34;65.83;91871.09;5011067;28;20187;-76
2022/04/07 01:17:38;;;;;;;11.63;10.67;;;;;;;8.34;65.99;91867.72;5011578;28;20200;-75
2022/04/07 01:20:06;;;;;;;10.80;10.00;;;;;;;8.31;66.06;91871.66;5011123;28;20241;-75
2022/04/07 01:22:35;;;;;;;10.53;9.83;;;;;;;8.27;66.29;91854.28;5011789;28;20231;-75
2022/04/07 01:25:01;;;;;;;11.30;10.67;;;;;;;8.28;65.86;91863.66;5011051;28;20223;-75
2022/04/07 01:27:27;;;;;;;9.93;9.33;;;;;;;8.31;65.43;91865.69;5011820;28;21085;-75
2022/04/07 01:29:52;;;;;;;10.60;10.03;;;;;;;8.17;65.68;91837.75;5010781;28;20266;-75
2022/04/07 01:32:23;;;;;;;11.17;10.33;;;;;;;8.25;65.76;91841.56;5011550;28;20267;-75
2022/04/07 01:34:50;;;;;;;9.87;9.20;;;;;;;8.30;66.58;91823.28;5011570;28;20242;-75
2022/04/07 01:37:18;;;;;;;9.57;8.73;;;;;;;8.08;67.68;91823.84;5011845;28;20188;-75
2022/04/07 01:39:44;;;;;;;9.13;8.73;;;;;;;8.11;66.49;91820.69;5011141;28;20287;-75
2022/04/07 01:42:14;;;;;;;10.60;10.10;;;;;;;8.24;66.01;91826.25;5011334;28;20956;-74
2022/04/07 01:44:46;;;;;;;9.50;8.87;;;;;;;8.34;65.72;91820.91;5011212;28;20258;-75
2022/04/07 01:47:14;;;;;;;9.67;9.17;;;;;;;8.42;65.73;91812.47;5010303;28;20282;-75
2022/04/07 01:49:44;;;;;;;10.77;10.30;;;;;;;8.43;65.95;91791.38;5009011;28;20227;-75
2022/04/07 01:52:14;;;;;;;11.30;10.50;;;;;;;8.45;65.82;91781.44;5026444;28;20203;-75
2022/04/07 01:54:44;;;;;;;9.50;9.00;;;;;;;8.42;65.90;91784.59;5010601;28;20231;-75
2022/04/07 01:57:11;;;;;;;9.83;9.20;;;;;;;8.38;65.94;91769.88;5010899;28;20854;-75
2022/04/07 01:59:37;;;;;;;9.67;9.17;;;;;;;8.37;65.71;91786.53;5010689;28;20227;-75
2022/04/07 02:02:02;;;;;;;10.13;9.63;;;;;;;8.32;65.08;91763.22;5010695;28;20222;-75
2022/04/07 02:04:28;;;;;;;10.13;9.63;;;;;;;8.48;64.84;91769.72;5011058;28;20224;-75
2022/04/07 02:06:54;;;;;;;11.47;10.87;;;;;;;8.47;64.68;91784.53;5011273;28;20198;-75
2022/04/07 02:09:19;;;;;;;9.73;9.07;;;;;;;8.44;65.03;91771.31;5009475;28;20258;-75
2022/04/07 02:11:45;;;;;;;10.90;10.30;;;;;;;8.65;64.53;91767.34;5010336;28;20263;-75
2022/04/07 02:14:10;;;;;;;11.10;10.50;;;;;;;8.64;64.91;91768.41;5010945;28;20238;-75
2022/04/07 02:16:36;;;;;;;9.83;9.33;;;;;;;8.66;65.22;91761.06;5010971;28;20184;-75
2022/04/07 02:19:01;;;;;;;11.77;10.97;;;;;;;8.64;64.57;91748.34;5011329;28;20286;-74
2022/04/07 02:21:27;;;;;;;10.10;9.50;;;;;;;8.62;65.54;91755.69;5010509;28;20235;-75
2022/04/07 02:23:52;;;;;;;10.30;9.80;;;;;;;8.45;64.62;91733.88;5009876;28;20319;-75
2022/04/07 02:26:18;;;;;;;10.27;9.67;;;;;;;8.57;64.29;91742.75;5010541;28;20198;-75
2022/04/07 02:28:44;;;;;;;10.53;9.83;;;;;;;8.46;64.67;91725.78;5010188;28;20250;-74
2022/04/07 02:31:13;;;;;;;10.57;9.93;;;;;;;8.76;62.62;91740.84;5010792;28;20199;-75
2022/04/07 02:33:39;;;;;;;10.27;9.77;;;;;;;8.70;63.84;91730.81;5009281;28;20995;-75
2022/04/07 02:36:06;;;;;;;10.23;9.73;;;;;;;8.58;64.43;91735.69;5010067;28;20195;-75
2022/04/07 02:38:34;;;;;;;9.70;8.90;;;;;;;8.85;63.15;91728.72;5009958;28;20251;-75
2022/04/07 02:40:59;;;;;;;11.00;10.30;;;;;;;8.84;62.97;91721.19;5009143;28;20234;-75
2022/04/07 02:43:25;;;;;;;10.60;10.00;;;;;;;8.98;61.37;91703.75;5010374;28;20227;-75
2022/04/07 02:45:51;;;;;;;10.33;9.77;;;;;;;9.09;60.66;91707.69;5010170;28;20202;-75
2022/04/07 02:48:17;;;;;;;10.60;9.87;;;;;;;9.30;60.46;91729.66;5009471;28;20223;-75
2022/04/07 02:50:43;;;;;;;10.57;9.87;;;;;;;9.28;59.92;91716.13;5010508;28;20199;-74
2022/04/07 02:53:09;;;;;;;9.47;8.97;;;;;;;9.43;59.52;91705.41;5009361;28;20255;-75
2022/04/07 02:55:35;;;;;;;9.63;9.13;;;;;;;9.57;58.63;91711.38;5010284;28;20190;-75
2022/04/07 02:58:00;;;;;;;10.83;10.17;;;;;;;9.62;58.18;91700.81;5009552;28;20226;-74
2022/04/07 03:00:26;;;;;;;9.80;9.30;;;;;;;9.82;57.22;91689.97;5010123;28;20191;-75
2022/04/07 03:02:52;;;;;;;10.23;9.53;;;;;;;9.99;56.62;91653.56;5009858;28;20191;-75
2022/04/07 03:05:17;;;;;;;10.50;9.90;;;;;;;10.02;56.52;91663.41;5009993;28;20210;-74
2022/04/07 03:07:43;;;;;;;9.27;8.87;;;;;;;9.98;57.18;91667.66;5009731;28;20225;-75
2022/04/07 03:10:09;;;;;;;10.17;9.40;;;;;;;10.00;57.97;91670.75;5010002;28;20236;-75
2022/04/07 03:12:35;;;;;;;11.77;10.87;;;;;;;9.86;59.04;91661.44;5009907;28;20190;-74
2022/04/07 03:15:01;;;;;;;10.00;9.23;;;;;;;9.76;59.67;91655.41;5009923;28;20234;-75
2022/04/07 03:17:27;;;;;;;9.63;9.13;;;;;;;9.73;60.85;91639.59;5009324;28;20286;-75
2022/04/07 03:19:52;;;;;;;11.07;10.17;;;;;;;9.55;61.94;91635.34;5009708;28;20238;-75
2022/04/07 03:22:19;;;;;;;12.10;11.40;;;;;;;9.54;61.19;91637.16;5008478;28;20323;-74
2022/04/07 03:24:45;;;;;;;14.80;12.60;;;;;;;9.54;61.14;91642.38;5008739;28;20227;-75
2022/04/07 03:27:11;;;;;;;11.80;11.00;;;;;;;9.44;60.98;91621.00;5007291;28;20191;-75
2022/04/07 03:29:37;;;;;;;11.30;10.50;;;;;;;9.58;61.41;91639.94;5009637;28;20235;-75
2022/04/07 03:32:04;;;;;;;10.30;9.70;;;;;;;9.61;60.48;91634.16;5010160;28;20196;-75
2022/04/07 03:34:29;;;;;;;9.60;9.07;;;;;;;9.61;59.79;91632.31;5008279;28;20247;-74
2022/04/07 03:36:55;;;;;;;9.90;9.33;;;;;;;9.80;59.29;91619.09;5009565;28;20184;-75
2022/04/07 03:39:21;;;;;;;9.37;8.77;;;;;;;10.14;58.62;91616.72;5008977;28;20242;-74
2022/04/07 03:41:47;;;;;;;9.90;9.07;;;;;;;10.15;58.17;91607.81;5009455;28;20256;-74
2022/04/07 03:44:12;;;;;;;10.37;9.70;;;;;;;10.21;57.96;91604.00;5009587;28;20299;-76
2022/04/07 03:46:37;;;;;;;10.33;9.53;;;;;;;10.24;58.28;91602.66;5009518;28;20199;-75
2022/04/07 03:49:03;;;;;;;10.40;9.77;;;;;;;10.20;58.22;91592.03;5007949;28;20254;-75
2022/04/07 03:51:28;;;;;;;9.90;9.40;;;;;;;10.09;58.05;91585.56;5009565;28;20199;-75
2022/04/07 03:53:54;;;;;;;9.97;9.37;;;;;;;9.77;59.26;91570.19;5008768;28;20250;-75
2022/04/07 03:56:19;;;;;;;10.23;9.40;;;;;;;9.91;58.66;91551.84;5008087;28;20757;-75
2022/04/07 03:58:45;;;;;;;9.37;8.80;;;;;;;9.86;58.92;91573.59;5008892;28;20239;-74
2022/04/07 04:01:10;;;;;;;10.70;9.80;;;;;;;9.88;58.16;91536.81;5009184;28;20180;-75
2022/04/07 04:03:36;;;;;;;9.47;8.83;;;;;;;10.03;58.01;91559.88;5008768;28;20262;-75
2022/04/07 04:06:02;;;;;;;9.63;9.17;;;;;;;10.03;58.20;91555.44;5009431;28;20191;-75
2022/04/07 04:08:27;;;;;;;11.03;10.30;;;;;;;9.95;58.05;91558.75;5008526;28;20232;-75
2022/04/07 04:10:53;;;;;;;10.53;9.87;;;;;;;9.87;57.94;91550.91;5009676;28;20255;-75
2022/04/07 04:13:19;;;;;;;10.00;9.20;;;;;;;9.90;58.33;91586.81;5008589;28;20862;-75
2022/04/07 04:15:45;;;;;;;10.47;9.83;;;;;;;9.62;59.71;91594.75;5009729;28;20191;-74
2022/04/07 04:18:10;;;;;;;9.93;9.33;;;;;;;9.55;61.30;91601.47;5008583;28;20315;-75
2022/04/07 04:20:35;;;;;;;9.50;9.00;;;;;;;9.24;61.76;91605.81;5009155;28;20187;-74
2022/04/07 04:23:01;;;;;;;10.80;10.03;;;;;;;9.19;61.20;91592.91;5008807;28;20195;-74
2022/04/07 04:25:26;;;;;;;10.60;9.80;;;;;;;9.44;60.52;91610.56;5009397;28;20292;-77
2022/04/07 04:27:52;;;;;;;11.40;10.27;;;;;;;9.39;60.59;91615.88;5005074;28;20211;-75
2022/04/07 04:30:20;;;;;;;9.47;8.97;;;;;;;9.49;60.43;91621.63;5009342;28;20191;-75
2022/04/07 04:32:46;;;;;;;10.27;9.70;;;;;;;9.43;59.81;91629.88;5008169;28;20211;-75
2022/04/07 04:35:11;;;;;;;9.87;9.27;;;;;;;9.25;60.40;91626.34;5011600;28;20200;-75
2022/04/07 04:37:38;;;;;;;11.37;10.47;;;;;;;9.55;60.16;91630.13;5010258;28;20200;-74
2022/04/07 04:40:04;;;;;;;10.00;9.30;;;;;;;9.55;60.98;91624.91;5011911;28;20230;-74
2022/04/07 04:42:29;;;;;;;10.93;10.23;;;;;;;9.46;61.18;91600.63;5010589;28;20658;-76
2022/04/07 04:44:55;;;;;;;10.23;9.37;;;;;;;9.45;61.84;91592.03;5010873;28;20227;-79
2022/04/07 04:47:20;;;;;;;12.63;10.63;;;;;;;9.56;61.84;91603.78;5010012;28;20218;-79
2022/04/07 04:49:46;;;;;;;10.63;10.03;;;;;;;9.62;61.86;91591.38;5011035;28;20228;-75
2022/04/07 04:52:11;;;;;;;10.87;10.27;;;;;;;9.70;62.06;91598.47;5011879;28;20195;-77
2022/04/07 04:54:37;;;;;;;11.03;10.30;;;;;;;9.60;61.80;91583.09;5010261;28;20259;-80
2022/04/07 04:57:03;;;;;;;11.83;10.90;;;;;;;9.76;61.97;91618.16;5012244;28;20248;-79
2022/04/07 04:59:29;;;;;;;10.67;9.67;;;;;;;9.68;61.49;91598.03;5010340;28;20234;-78
2022/04/07 05:01:54;;;;;;;10.63;10.13;;;;;;;9.59;60.20;91618.03;5007433;28;20188;-76
2022/04/07 05:04:20;;;;;;;9.40;8.90;;;;;;;9.41;60.75;91614.53;5009764;28;20278;-77
2022/04/07 05:06:45;;;;;;;10.13;9.63;;;;;;;9.87;59.35;91603.81;5010609;28;20196;-79
2022/04/07 05:09:11;;;;;;;10.77;9.97;;;;;;;10.41;58.30;91606.09;5011382;28;20315;-79
2022/04/07 05:11:36;;;;;;;11.70;9.80;;;;;;;10.95;58.77;91608.25;5011052;28;20252;-77
2022/04/07 05:14:02;;;;;;;11.87;11.13;;;;;;;11.04;58.05;91589.97;5009558;28;20227;-80
2022/04/07 05:16:27;;;;;;;11.13;9.67;;;;;;;11.08;58.24;91612.56;5008948;28;20218;-80
2022/04/07 05:18:53;;;;;;;9.77;9.20;;;;;;;10.87;56.79;91595.94;5009338;28;20244;-79
2022/04/07 05:21:18;;;;;;;10.17;9.57;;;;;;;10.71;57.24;91587.00;5008031;28;20242;-81
2022/04/07 05:23:44;;;;;;;11.20;10.20;;;;;;;11.32;56.12;91594.63;5008092;28;20236;-80
2022/04/07 05:26:12;;;;;;;11.37;10.53;;;;;;;10.88;57.09;91597.47;5010910;28;20239;-80
2022/04/07 05:28:39;;;;;;;10.50;9.80;;;;;;;10.61;58.19;91597.72;5008275;28;20284;-77
2022/04/07 05:31:04;;;;;;;10.77;10.17;;;;;;;10.40;58.13;91564.63;5010436;28;20184;-80
2022/04/07 05:33:30;;;;;;;12.73;11.67;;;;;;;10.50;59.15;91600.91;5009134;28;21136;-80
2022/04/07 05:35:55;;;;;;;11.67;10.77;;;;;;;10.13;60.08;91617.81;5009716;28;20262;-81
2022/04/07 05:38:21;;;;;;;11.97;10.83;;;;;;;10.26;59.82;91606.50;5010118;28;20293;-80
2022/04/07 05:40:46;;;;;;;9.90;9.30;;;;;;;10.33;59.37;91587.81;5010009;28;20189;-81
2022/04/07 05:43:12;;;;;;;11.57;10.70;;;;;;;10.67;58.45;91590.53;5010336;28;20952;-79
2022/04/07 05:45:39;;;;;;;10.03;9.50;;;;;;;10.40;57.93;91565.41;5011052;28;21073;-80
2022/04/07 05:48:04;;;;;;;11.27;10.57;;;;;;;10.07;59.64;91585.06;5010254;28;20232;-77
2022/04/07 05:50:30;;;;;;;13.23;9.80;;;;;;;9.79;60.69;91586.28;5010256;28;20207;-78
2022/04/07 05:52:55;;;;;;;11.53;10.93;;;;;;;10.01;59.43;91549.00;5005236;28;20206;-77
2022/04/07 05:55:21;;;;;;;13.93;12.33;;;;;;;9.86;59.75;91533.72;4988736;28;20203;-80
2022/04/07 05:57:46;;;;;;;9.50;8.77;;;;;;;9.78;59.65;91532.63;4989715;28;20192;-78
2022/04/07 06:00:13;;;;;;;11.40;10.23;;;;;;;10.18;59.09;91562.13;5011385;28;20188;-77
2022/04/07 06:02:40;;;;;;;10.27;9.17;;;;;;;10.21;59.48;91556.31;5010307;28;20191;-78
2022/04/07 06:05:07;;;;;;;11.03;10.20;;;;;;;10.22;59.76;91542.97;5009292;28;20242;-77
2022/04/07 06:07:33;;;;;;;10.63;10.00;;;;;;;10.28;60.14;91540.97;5009122;28;20184;-78
2022/04/07 06:09:58;;;;;;;10.97;10.37;;;;;;;10.33;61.18;91540.84;5008354;28;20260;-79
2022/04/07 06:12:24;;;;;;;10.33;9.47;;;;;;;10.26;61.11;91538.69;5011115;28;20667;-78
2022/04/07 06:14:49;;;;;;;11.13;10.37;;;;;;;10.40;60.83;91546.38;5009911;28;20768;-78
2022/04/07 06:17:15;;;;;;;10.50;9.83;;;;;;;10.26;60.50;91499.56;5010221;28;20303;-79
2022/04/07 06:19:40;;;;;;;13.10;11.87;;;;;;;10.55;59.53;91514.66;5010696;28;20273;-78
2022/04/07 06:22:07;;;;;;;16.00;11.17;;;;;;;10.68;59.55;91532.78;5009040;28;20255;-78
2022/04/07 06:24:33;;;;;;;11.57;10.47;;;;;;;10.88;58.10;91554.97;5009528;28;20243;-78
2022/04/07 06:26:59;;;;;;;9.57;8.97;;;;;;;10.92;58.51;91550.66;5009318;28;20188;-78
2022/04/07 06:29:24;;;;;;;10.20;9.60;;;;;;;10.87;57.78;91537.72;5009462;28;20254;-78
2022/04/07 06:31:49;;;;;;;11.20;10.40;;;;;;;10.50;58.65;91544.28;5010390;28;20231;-78
2022/04/07 06:34:15;;;;;;;10.37;9.67;;;;;;;10.41;58.79;91538.25;5010849;28;20320;-78
2022/04/07 06:36:40;;;;;;;9.73;9.03;;;;;;;10.27;59.20;91550.66;5010716;28;20199;-78
2022/04/07 06:39:06;;;;;;;10.37;9.73;;;;;;;10.22;59.72;91537.75;5009982;28;20233;-78
2022/04/07 06:41:33;;;;;;;10.00;9.27;;;;;;;10.12;59.19;91519.75;5010379;28;20209;-78
2022/04/07 06:43:59;;;;;;;11.27;10.17;;;;;;;10.03;59.70;91537.19;5010499;28;20235;-78
2022/04/07 06:46:25;;;;;;;10.53;9.87;;;;;;;10.00;58.91;91514.31;5011518;28;20190;-78
2022/04/07 06:48:50;;;;;;;16.00;10.07;;;;;;;10.11;58.42;91520.06;5010502;28;20242;-78
2022/04/07 06:51:16;;;;;;;10.33;9.60;;;;;;;10.25;57.86;91542.38;5009969;28;20214;-78
2022/04/07 06:53:41;;;;;;;10.00;9.40;;;;;;;10.29;58.12;91539.94;5009896;28;20239;-78
2022/04/07 06:56:08;;;;;;;11.70;10.90;;;;;;;10.24;58.66;91519.19;5010178;28;20195;-78
2022/04/07 06:58:33;;;;;;;10.73;9.23;;;;;;;10.30;58.17;91529.19;5011546;28;20238;-78
2022/04/07 07:00:59;;;;;;;10.40;9.57;;;;;;;10.43;58.00;91530.16;5011063;28;20195;-78
2022/04/07 07:03:24;;;;;;;10.37;9.57;;;;;;;10.24;58.52;91525.16;5009910;28;20255;-78
2022/04/07 07:05:50;;;;;;;10.50;9.77;;;;;;;10.42;58.09;91525.97;5010408;28;20192;-78
2022/04/07 07:08:24;;;;;;;9.80;9.20;;;;;;;10.39;57.78;91524.75;5010684;28;20238;-79
2022/04/07 07:10:51;;;;;;;10.10;9.50;;;;;;;10.47;57.73;91529.25;5012111;28;20225;-78
2022/04/07 07:13:20;;;;;;;11.43;10.30;;;;;;;10.44;57.44;91535.06;5010160;28;20246;-78
2022/04/07 07:15:46;;;;;;;9.83;9.13;;;;;;;10.48;57.56;91524.75;5010740;28;20217;-78
2022/04/07 07:18:12;;;;;;;10.63;9.70;;;;;;;10.47;58.64;91529.25;5009535;28;20240;-78
2022/04/07 07:20:38;;;;;;;11.57;10.60;;;;;;;10.73;58.12;91526.66;5010136;28;20190;-78
2022/04/07 07:23:03;;;;;;;11.63;11.00;;;;;;;11.12;56.94;91518.69;5008834;28;20246;-78
2022/04/07 07:25:31;;;;;;;10.30;9.53;;;;;;;11.52;55.77;91522.66;5009800;28;20199;-78
2022/04/07 07:28:01;;;;;;;10.00;9.50;;;;;;;11.66;54.07;91530.38;5009767;28;20206;-79
2022/04/07 07:30:28;;;;;;;10.23;9.70;;;;;;;11.51;55.77;91525.59;5011495;28;20215;-78
2022/04/07 07:32:54;;;;;;;10.03;9.30;;;;;;;11.62;54.91;91524.97;5010570;28;20256;-79
2022/04/07 07:35:20;;;;;;;11.00;10.00;;;;;;;10.67;55.86;91426.88;5008870;28;20188;-79
2022/04/07 07:37:53;;;;;;;11.10;10.30;;;;;;;10.39;58.00;91495.28;5009435;28;20191;-79
2022/04/07 07:40:21;;;;;;;10.90;9.77;;;;;;;10.67;57.11;91497.34;5010015;28;20207;-78
2022/04/07 07:42:47;;;;;;;10.43;9.83;;;;;;;11.06;57.51;91493.81;5009675;28;20232;-78
2022/04/07 07:45:18;;;;;;;11.43;10.53;;;;;;;11.24;58.11;91500.56;5011771;28;20207;-79
2022/04/07 07:47:43;;;;;;;10.43;9.63;;;;;;;11.35;56.80;91481.66;5010552;28;20188;-78
2022/04/07 07:50:09;;;;;;;10.60;10.00;;;;;;;11.51;56.77;91484.53;5009299;28;20250;-78
2022/04/07 07:52:34;;;;;;;10.77;9.97;;;;;;;11.61;55.92;91478.22;5009972;28;20210;-78
2022/04/07 07:55:01;;;;;;;9.87;9.17;;;;;;;11.44;55.72;91467.81;5009447;28;20215;-78
2022/04/07 07:57:27;;;;;;;10.47;9.77;;;;;;;11.44;57.02;91479.00;5009204;28;20216;-78
2022/04/07 07:59:52;;;;;;;11.20;10.50;;;;;;;11.70;56.09;91487.59;5009436;28;20224;-78
2022/04/07 08:02:21;;;;;;;12.10;8.90;;;;;;;11.72;56.91;91487.28;5008817;28;20241;-78
2022/04/07 08:04:46;;;;;;;11.10;10.30;;;;;;;11.64;55.42;91478.41;5010047;28;20236;-78
2022/04/07 08:07:12;;;;;;;11.83;10.80;;;;;;;11.59;55.51;91460.25;5009972;28;20206;-79
2022/04/07 08:09:37;;;;;;;11.17;10.43;;;;;;;11.65;56.28;91453.78;5013006;28;20227;-79
2022/04/07 08:12:03;;;;;;;11.90;11.00;;;;;;;11.86;55.18;91467.69;5013934;28;20197;-78
2022/04/07 08:14:30;;;;;;;10.10;9.40;;;;;;;11.81;54.70;91461.88;5014256;28;20239;-79
2022/04/07 08:16:55;;;;;;;11.67;10.83;;;;;;;11.89;54.96;91463.72;5013454;28;20183;-75
2022/04/07 08:19:21;;;;;;;12.60;11.30;;;;;;;12.11;55.39;91455.63;5012535;28;20231;-75
2022/04/07 08:21:46;;;;;;;11.50;10.43;;;;;;;12.18;53.35;91435.72;5013176;28;20651;-75
2022/04/07 08:24:12;;;;;;;11.77;10.73;;;;;;;12.03;55.53;91448.56;5013188;28;20225;-75
2022/04/07 08:26:37;;;;;;;12.07;11.17;;;;;;;12.01;55.37;91414.09;5014102;28;20218;-75
2022/04/07 08:29:03;;;;;;;11.27;10.17;;;;;;;12.42;53.40;91440.38;5011062;28;20294;-74
2022/04/07 08:31:28;;;;;;;10.47;9.67;;;;;;;12.32;52.87;91425.78;5012983;28;20202;-75
2022/04/07 08:33:54;;;;;;;10.27;9.60;;;;;;;12.47;51.96;91437.53;5012665;28;20740;-73
2022/04/07 08:36:19;;;;;;;10.20;9.60;;;;;;;12.12;52.02;91423.13;5012491;28;21024;-75
2022/04/07 08:38:45;;;;;;;13.07;11.70;;;;;;;12.11;52.70;91434.69;5012181;28;21136;-75
2022/04/07 08:41:11;;;;;;;12.13;11.03;;;;;;;11.83;54.33;91415.28;5011633;28;20325;-75
2022/04/07 08:43:40;;;;;;;10.23;9.63;;;;;;;12.24;54.05;91420.59;5012281;28;20235;-74
2022/04/07 08:46:14;;;;;;;11.27;10.37;;;;;;;12.33;52.17;91431.78;5012824;28;20219;-75
2022/04/07 08:48:42;;;;;;;11.17;10.30;;;;;;;11.78;54.05;91415.44;5012109;28;20270;-75
2022/04/07 08:51:08;;;;;;;11.83;10.80;;;;;;;10.92;55.07;91423.50;5011893;28;20192;-74
2022/04/07 08:53:35;;;;;;;9.77;8.97;;;;;;;11.68;55.36;91416.56;5012200;28;20293;-74
2022/04/07 08:56:02;;;;;;;10.40;9.60;;;;;;;11.66;54.13;91402.28;5012323;28;20179;-74
2022/04/07 08:58:28;;;;;;;11.47;10.47;;;;;;;11.53;54.54;91398.00;5012085;28;20239;-75
2022/04/07 09:00:53;;;;;;;11.87;11.07;;;;;;;11.26;55.18;91406.97;5011758;28;20257;-75
2022/04/07 09:03:19;;;;;;;12.03;11.10;;;;;;;11.64;54.76;91412.28;5010395;28;20237;-75
2022/04/07 09:05:54;;;;;;;11.43;10.23;;;;;;;11.53;54.43;91382.31;5011150;28;20193;-75
2022/04/07 09:08:20;;;;;;;11.17;10.37;;;;;;;11.79;53.91;91420.38;5027028;28;20228;-74
2022/04/07 09:10:53;;;;;;;11.17;10.13;;;;;;;11.76;53.40;91423.59;5012106;28;20219;-74
2022/04/07 09:13:19;;;;;;;10.77;10.07;;;;;;;11.22;55.82;91412.06;5012096;28;20265;-74
2022/04/07 09:15:45;;;;;;;10.77;10.10;;;;;;;11.15;58.16;91406.56;5012363;28;20195;-75
2022/04/07 09:18:10;;;;;;;12.07;11.07;;;;;;;11.38;56.60;91406.34;5011213;28;20267;-75
2022/04/07 09:20:42;;;;;;;9.97;9.27;;;;;;;11.54;56.42;91421.19;5011266;28;20184;-75
2022/04/07 09:23:11;;;;;;;13.07;10.53;;;;;;;11.42;56.37;91425.53;5010981;28;20250;-75
2022/04/07 09:25:43;;;;;;;11.60;10.70;;;;;;;11.29;56.44;91435.09;5010729;28;20199;-74
2022/04/07 09:28:11;;;;;;;11.20;10.53;;;;;;;10.88;56.71;91408.75;5010832;28;20244;-74
2022/04/07 09:30:41;;;;;;;10.97;10.27;;;;;;;11.01;56.32;91428.69;5012423;28;20196;-74
2022/04/07 09:33:19;;;;;;;10.03;9.43;;;;;;;10.96;55.73;91424.38;5011448;28;20232;-75
2022/04/07 09:36:22;;;;;;;10.40;9.27;;;;;;;11.26;55.87;91428.66;5011756;28;20259;-74
2022/04/07 09:38:55;;;;;;;11.83;10.80;;;;;;;11.33;55.14;91434.16;4960773;28;20242;-75
2022/04/07 09:41:22;;;;;;;10.67;9.97;;;;;;;11.35;55.71;91431.22;5011243;28;20231;-75
2022/04/07 09:43:54;;;;;;;10.03;9.43;;;;;;;11.29;54.36;91419.41;5011631;28;20229;-75
2022/04/07 09:46:21;;;;;;;10.33;9.73;;;;;;;11.13;55.14;91429.59;5011710;28;20195;-75
2022/04/07 09:49:03;;;;;;;10.63;9.87;;;;;;;11.00;56.44;91427.16;5011212;28;20248;-75
2022/04/07 09:51:29;;;;;;;11.03;10.33;;;;;;;11.07;57.44;91440.50;5011695;28;20203;-75
2022/04/07 09:53:56;;;;;;;10.80;9.90;;;;;;;10.89;59.16;91452.81;5011063;28;20242;-74
2022/04/07 09:56:26;;;;;;;10.53;9.70;;;;;;;11.18;59.19;91450.34;5011712;28;20203;-75
2022/04/07 09:58:53;;;;;;;11.37;10.57;;;;;;;10.92;62.82;91461.88;5010269;28;20236;-75
2022/04/07 10:01:19;;;;;;;13.00;12.03;;;;;;;10.27;66.70;91435.91;5010937;28;20194;-75
2022/04/07 10:03:47;;;;;;;10.93;9.70;;;;;;;9.77;71.40;91463.34;5009965;28;20231;-75
2022/04/07 10:06:15;;;;;;;10.37;9.60;;;;;;;9.94;72.92;91439.16;5011106;28;20200;-73
2022/04/07 10:08:41;;;;;;;12.37;11.23;;;;;;;9.85;75.45;91438.38;5011109;28;20227;-72
2022/04/07 10:11:08;;;;;;;11.60;10.80;;;;;;;9.87;77.89;91450.00;5011253;28;20226;-73
2022/04/07 10:13:34;;;;;;;12.50;11.13;;;;;;;9.96;81.03;91450.06;5008870;28;20235;-73
2022/04/07 10:16:00;;;;;;;12.47;11.07;;;;;;;10.02;81.67;91460.03;5010240;28;20262;-73
2022/04/07 10:18:39;;;;;;;12.07;11.23;;;;;;;10.11;81.19;91458.25;5010352;28;20227;-73
2022/04/07 10:21:07;;;;;;;12.20;11.20;;;;;;;10.06;78.49;91445.31;5010797;28;20219;-73
2022/04/07 10:24:03;;;;;;;10.73;9.93;;;;;;;10.12;78.58;91459.78;5010478;28;20239;-74
2022/04/07 10:26:29;;;;;;;10.70;9.80;;;;;;;9.35;81.59;91422.22;5011201;28;20696;-73
2022/04/07 10:28:56;;;;;;;11.83;10.27;;;;;;;9.26;82.24;91435.19;5010404;28;20258;-73
2022/04/07 10:31:22;;;;;;;10.93;10.30;;;;;;;9.45;81.90;91440.19;5009788;28;20188;-75
2022/04/07 10:33:48;;;;;;;10.57;9.57;;;;;;;9.24;79.70;91439.16;5010894;28;20314;-74
2022/04/07 10:36:22;;;;;;;10.77;9.83;;;;;;;8.75;84.02;91439.31;5009466;28;20186;-75
2022/04/07 10:38:52;;;;;;;10.63;9.93;;;;;;;8.81;85.05;91440.75;5009518;28;20267;-74
2022/04/07 10:41:35;;;;;;;10.90;10.20;;;;;;;8.90;87.01;91444.16;5010258;28;20183;-73
2022/04/07 10:44:18;;;;;;;12.70;10.73;;;;;;;9.12;87.32;91447.53;5009731;28;20223;-74
2022/04/07 10:46:43;;;;;;;11.60;10.80;;;;;;;9.32;86.60;91452.22;5010400;28;20191;-75
2022/04/07 10:49:11;;;;;;;11.40;10.70;;;;;;;9.62;87.19;91451.47;5010517;28;20238;-74
2022/04/07 10:51:51;;;;;;;11.67;10.57;;;;;;;9.63;88.95;91452.22;5010421;28;20195;-74
2022/04/07 10:54:17;;;;;;;11.63;10.63;;;;;;;9.68;85.34;91441.69;5009098;28;20905;-75
2022/04/07 10:56:48;;;;;;;12.90;12.07;;;;;;;9.54;85.95;91418.31;5010408;28;20230;-73
2022/04/07 10:59:19;;;;;;;14.00;12.70;;;;;;;9.61;86.12;91399.66;5009398;28;20264;-74
2022/04/07 11:01:47;;;;;;;13.90;12.00;;;;;;;9.60;89.98;91432.00;5010722;28;20265;-75
2022/04/07 11:04:19;;;;;;;13.37;11.83;;;;;;;9.17;90.57;91417.97;5009189;28;20249;-75
2022/04/07 11:07:10;;;;;;;14.00;12.80;;;;;;;9.95;89.77;91419.81;5010045;28;20239;-75
2022/04/07 11:09:54;;;;;;;12.63;11.37;;;;;;;10.32;88.45;91427.91;5009087;28;20234;-75
2022/04/07 11:12:43;;;;;;;13.03;11.87;;;;;;;10.68;86.40;91425.78;5009577;28;20191;-74
2022/04/07 11:15:48;;;;;;;13.20;11.80;;;;;;;10.86;85.19;91416.88;5009570;28;20214;-75
2022/04/07 11:18:32;;;;;;;14.00;12.33;;;;;;;11.23;84.09;91418.81;5010010;28;20243;-75
2022/04/07 11:21:11;;;;;;;12.30;11.40;;;;;;;11.29;83.38;91408.97;5009461;28;20250;-76
2022/04/07 11:23:49;;;;;;;13.03;11.93;;;;;;;11.61;81.25;91413.63;5008422;28;20270;-75
2022/04/07 11:26:24;;;;;;;12.93;11.50;;;;;;;11.60;79.79;91421.78;5010620;28;20233;-76
2022/04/07 11:29:10;;;;;;;13.53;12.47;;;;;;;11.69;79.00;91418.09;5009565;28;20245;-75